sensor_id;sensor_type;location;lat;lon;timestamp;temperature;humidity
6581;DHT22;3324;50.796;7.228;2022-07-06T00:01:39;18.00;99.90
6581;DHT22;3324;50.796;7.228;2022-07-06T00:04:05;17.90;99.90
6581;DHT22;3324;50.796;7.228;2022-07-06T00:06:31;17.80;99.90
6581;DHT22;3324;50.796;7.228;2022-07-06T00:08:57;17.70;99.90
6581;DHT22;3324;50.796;7.228;2022-07-06T00:11:23;17.70;99.90
6581;DHT22;3324;50.796;7.228;2022-07-06T00:13:48;17.60;99.90
6581;DHT22;3324;50.796;7.228;2022-07-06T00:16:14;17.70;99.90
6581;DHT22;3324;50.796;7.228;2022-07-06T00:18:40;17.60;99.90
6581;DHT22;3324;50.796;7.228;2022-07-06T00:21:05;17.60;99.90
6581;DHT22;3324;50.796;7.228;2022-07-06T00:23:31;17.60;99.90
6581;DHT22;3324;50.796;7.228;2022-07-06T00:25:57;17.50;99.90
6581;DHT22;3324;50.796;7.228;2022-07-06T00:28:22;17.50;99.90
6581;DHT22;3324;50.796;7.228;2022-07-06T00:30:48;17.40;99.90
6581;DHT22;3324;50.796;7.228;2022-07-06T00:33:14;17.40;99.90
6581;DHT22;3324;50.796;7.228;2022-07-06T00:35:39;17.40;99.90
6581;DHT22;3324;50.796;7.228;2022-07-06T00:38:05;17.40;99.90
6581;DHT22;3324;50.796;7.228;2022-07-06T00:40:31;17.30;99.90
6581;DHT22;3324;50.796;7.228;2022-07-06T00:42:56;17.40;99.90
6581;DHT22;3324;50.796;7.228;2022-07-06T00:45:22;17.20;99.90
6581;DHT22;3324;50.796;7.228;2022-07-06T00:47:48;17.20;99.90
6581;DHT22;3324;50.796;7.228;2022-07-06T00:50:16;17.20;99.90
6581;DHT22;3324;50.796;7.228;2022-07-06T00:52:54;17.20;99.90
6581;DHT22;3324;50.796;7.228;2022-07-06T00:55:26;17.10;99.90
6581;DHT22;3324;50.796;7.228;2022-07-06T00:57:53;17.10;99.90
6581;DHT22;3324;50.796;7.228;2022-07-06T01:00:21;17.20;99.90
6581;DHT22;3324;50.796;7.228;2022-07-06T01:02:47;17.10;99.90
6581;DHT22;3324;50.796;7.228;2022-07-06T01:05:14;17.10;99.90
6581;DHT22;3324;50.796;7.228;2022-07-06T01:07:45;17.00;99.90
6581;DHT22;3324;50.796;7.228;2022-07-06T01:10:13;16.90;99.90
6581;DHT22;3324;50.796;7.228;2022-07-06T01:12:40;16.90;99.90
6581;DHT22;3324;50.796;7.228;2022-07-06T01:15:11;16.90;99.90
6581;DHT22;3324;50.796;7.228;2022-07-06T01:17:39;16.90;99.90
6581;DHT22;3324;50.796;7.228;2022-07-06T01:20:18;16.80;99.90
6581;DHT22;3324;50.796;7.228;2022-07-06T01:22:46;16.80;99.90
6581;DHT22;3324;50.796;7.228;2022-07-06T01:25:12;16.70;99.90
6581;DHT22;3324;50.796;7.228;2022-07-06T01:27:39;16.60;99.90
6581;DHT22;3324;50.796;7.228;2022-07-06T01:30:14;16.60;99.90
6581;DHT22;3324;50.796;7.228;2022-07-06T01:32:40;16.50;99.90
6581;DHT22;3324;50.796;7.228;2022-07-06T01:35:09;16.50;99.90
6581;DHT22;3324;50.796;7.228;2022-07-06T01:37:35;16.40;99.90
6581;DHT22;3324;50.796;7.228;2022-07-06T01:40:03;16.40;99.90
6581;DHT22;3324;50.796;7.228;2022-07-06T01:42:29;16.30;99.90
6581;DHT22;3324;50.796;7.228;2022-07-06T01:44:55;16.30;99.90
6581;DHT22;3324;50.796;7.228;2022-07-06T01:47:21;16.20;99.90
6581;DHT22;3324;50.796;7.228;2022-07-06T01:49:47;16.10;99.90
6581;DHT22;3324;50.796;7.228;2022-07-06T01:52:12;16.20;99.90
6581;DHT22;3324;50.796;7.228;2022-07-06T01:54:38;16.10;99.90
6581;DHT22;3324;50.796;7.228;2022-07-06T01:57:04;16.00;99.90
6581;DHT22;3324;50.796;7.228;2022-07-06T01:59:29;16.00;99.90
6581;DHT22;3324;50.796;7.228;2022-07-06T02:01:55;16.00;99.90
6581;DHT22;3324;50.796;7.228;2022-07-06T02:04:21;16.00;99.90
6581;DHT22;3324;50.796;7.228;2022-07-06T02:06:47;15.90;99.90
6581;DHT22;3324;50.796;7.228;2022-07-06T02:09:13;15.80;99.90
6581;DHT22;3324;50.796;7.228;2022-07-06T02:11:38;15.80;99.90
6581;DHT22;3324;50.796;7.228;2022-07-06T02:14:04;15.70;99.90
6581;DHT22;3324;50.796;7.228;2022-07-06T02:16:29;15.60;99.90
6581;DHT22;3324;50.796;7.228;2022-07-06T02:18:55;15.60;99.90
6581;DHT22;3324;50.796;7.228;2022-07-06T02:21:21;15.60;99.90
6581;DHT22;3324;50.796;7.228;2022-07-06T02:23:46;15.60;99.90
6581;DHT22;3324;50.796;7.228;2022-07-06T02:26:12;15.60;99.90
6581;DHT22;3324;50.796;7.228;2022-07-06T02:28:37;15.60;99.90
6581;DHT22;3324;50.796;7.228;2022-07-06T02:31:03;15.50;99.90
6581;DHT22;3324;50.796;7.228;2022-07-06T02:33:29;15.50;99.90
6581;DHT22;3324;50.796;7.228;2022-07-06T02:35:54;15.50;99.90
6581;DHT22;3324;50.796;7.228;2022-07-06T02:38:20;15.50;99.90
6581;DHT22;3324;50.796;7.228;2022-07-06T02:40:46;15.40;99.90
6581;DHT22;3324;50.796;7.228;2022-07-06T02:43:11;15.30;99.90
6581;DHT22;3324;50.796;7.228;2022-07-06T02:45:37;15.40;99.90
6581;DHT22;3324;50.796;7.228;2022-07-06T02:48:03;15.30;99.90
6581;DHT22;3324;50.796;7.228;2022-07-06T02:50:28;15.30;99.90
6581;DHT22;3324;50.796;7.228;2022-07-06T02:52:54;15.20;99.90
6581;DHT22;3324;50.796;7.228;2022-07-06T02:55:20;15.30;99.90
6581;DHT22;3324;50.796;7.228;2022-07-06T02:57:46;15.20;99.90
6581;DHT22;3324;50.796;7.228;2022-07-06T03:00:12;15.20;99.90
6581;DHT22;3324;50.796;7.228;2022-07-06T03:02:38;15.10;99.90
6581;DHT22;3324;50.796;7.228;2022-07-06T03:05:04;15.10;99.90
6581;DHT22;3324;50.796;7.228;2022-07-06T03:07:30;15.00;99.90
6581;DHT22;3324;50.796;7.228;2022-07-06T03:09:56;15.00;99.90
6581;DHT22;3324;50.796;7.228;2022-07-06T03:12:21;14.90;99.90
6581;DHT22;3324;50.796;7.228;2022-07-06T03:14:47;14.90;99.90
6581;DHT22;3324;50.796;7.228;2022-07-06T03:17:12;14.90;99.90
6581;DHT22;3324;50.796;7.228;2022-07-06T03:19:38;15.00;99.90
6581;DHT22;3324;50.796;7.228;2022-07-06T03:22:03;15.00;99.90
6581;DHT22;3324;50.796;7.228;2022-07-06T03:24:29;14.80;99.90
6581;DHT22;3324;50.796;7.228;2022-07-06T03:26:55;14.90;99.90
6581;DHT22;3324;50.796;7.228;2022-07-06T03:29:20;14.90;99.90
6581;DHT22;3324;50.796;7.228;2022-07-06T03:31:46;14.80;99.90
6581;DHT22;3324;50.796;7.228;2022-07-06T03:34:12;14.80;99.90
6581;DHT22;3324;50.796;7.228;2022-07-06T03:36:38;14.80;99.90
6581;DHT22;3324;50.796;7.228;2022-07-06T03:39:03;14.70;99.90
6581;DHT22;3324;50.796;7.228;2022-07-06T03:41:29;14.70;99.90
6581;DHT22;3324;50.796;7.228;2022-07-06T03:43:55;14.70;99.90
6581;DHT22;3324;50.796;7.228;2022-07-06T03:46:20;14.60;99.90
6581;DHT22;3324;50.796;7.228;2022-07-06T03:48:46;14.50;99.90
6581;DHT22;3324;50.796;7.228;2022-07-06T03:51:12;14.50;99.90
6581;DHT22;3324;50.796;7.228;2022-07-06T03:53:38;14.50;99.90
6581;DHT22;3324;50.796;7.228;2022-07-06T03:56:03;14.60;99.90
6581;DHT22;3324;50.796;7.228;2022-07-06T03:58:48;14.60;99.90
6581;DHT22;3324;50.796;7.228;2022-07-06T04:01:14;14.70;99.90
6581;DHT22;3324;50.796;7.228;2022-07-06T04:03:40;14.80;99.90
6581;DHT22;3324;50.796;7.228;2022-07-06T04:06:06;14.80;99.90
6581;DHT22;3324;50.796;7.228;2022-07-06T04:08:32;14.70;99.90
6581;DHT22;3324;50.796;7.228;2022-07-06T04:10:57;14.70;99.90
6581;DHT22;3324;50.796;7.228;2022-07-06T04:13:23;14.70;99.90
6581;DHT22;3324;50.796;7.228;2022-07-06T04:15:50;14.80;99.90
6581;DHT22;3324;50.796;7.228;2022-07-06T04:18:16;14.90;99.90
6581;DHT22;3324;50.796;7.228;2022-07-06T04:20:42;15.00;99.90
6581;DHT22;3324;50.796;7.228;2022-07-06T04:23:08;15.00;99.90
6581;DHT22;3324;50.796;7.228;2022-07-06T04:25:34;15.10;99.90
6581;DHT22;3324;50.796;7.228;2022-07-06T04:28:00;15.20;99.90
6581;DHT22;3324;50.796;7.228;2022-07-06T04:30:25;15.30;99.90
6581;DHT22;3324;50.796;7.228;2022-07-06T04:32:51;15.40;99.90
6581;DHT22;3324;50.796;7.228;2022-07-06T04:35:17;15.50;99.90
6581;DHT22;3324;50.796;7.228;2022-07-06T04:37:42;15.50;99.90
6581;DHT22;3324;50.796;7.228;2022-07-06T04:40:08;15.50;99.90
6581;DHT22;3324;50.796;7.228;2022-07-06T04:42:34;15.50;99.90
6581;DHT22;3324;50.796;7.228;2022-07-06T04:45:00;15.40;99.90
6581;DHT22;3324;50.796;7.228;2022-07-06T04:47:25;15.40;99.90
6581;DHT22;3324;50.796;7.228;2022-07-06T04:49:51;15.40;99.90
6581;DHT22;3324;50.796;7.228;2022-07-06T04:52:17;15.40;99.90
6581;DHT22;3324;50.796;7.228;2022-07-06T04:54:42;15.40;99.90
6581;DHT22;3324;50.796;7.228;2022-07-06T04:57:08;15.40;99.90
6581;DHT22;3324;50.796;7.228;2022-07-06T04:59:34;15.40;99.90
6581;DHT22;3324;50.796;7.228;2022-07-06T05:02:00;15.40;99.90
6581;DHT22;3324;50.796;7.228;2022-07-06T05:04:25;15.40;99.90
6581;DHT22;3324;50.796;7.228;2022-07-06T05:06:51;15.40;99.90
6581;DHT22;3324;50.796;7.228;2022-07-06T05:09:16;15.40;99.90
6581;DHT22;3324;50.796;7.228;2022-07-06T05:11:42;15.50;99.90
6581;DHT22;3324;50.796;7.228;2022-07-06T05:14:08;15.60;99.90
6581;DHT22;3324;50.796;7.228;2022-07-06T05:16:33;15.60;99.90
6581;DHT22;3324;50.796;7.228;2022-07-06T05:18:59;15.70;99.90
6581;DHT22;3324;50.796;7.228;2022-07-06T05:21:25;15.70;99.90
6581;DHT22;3324;50.796;7.228;2022-07-06T05:23:50;15.90;99.90
6581;DHT22;3324;50.796;7.228;2022-07-06T05:26:16;16.00;99.90
6581;DHT22;3324;50.796;7.228;2022-07-06T05:28:42;16.00;99.90
6581;DHT22;3324;50.796;7.228;2022-07-06T05:31:07;16.20;99.90
6581;DHT22;3324;50.796;7.228;2022-07-06T05:33:33;16.30;99.90
6581;DHT22;3324;50.796;7.228;2022-07-06T05:35:59;16.40;99.90
6581;DHT22;3324;50.796;7.228;2022-07-06T05:38:24;16.60;99.90
6581;DHT22;3324;50.796;7.228;2022-07-06T05:40:50;16.80;99.90
6581;DHT22;3324;50.796;7.228;2022-07-06T05:43:16;16.90;99.90
6581;DHT22;3324;50.796;7.228;2022-07-06T05:45:42;17.00;99.90
6581;DHT22;3324;50.796;7.228;2022-07-06T05:48:08;17.10;99.90
6581;DHT22;3324;50.796;7.228;2022-07-06T05:50:53;17.10;99.90
6581;DHT22;3324;50.796;7.228;2022-07-06T05:53:19;17.20;99.90
6581;DHT22;3324;50.796;7.228;2022-07-06T05:55:45;17.30;99.90
6581;DHT22;3324;50.796;7.228;2022-07-06T05:58:10;17.20;99.90
6581;DHT22;3324;50.796;7.228;2022-07-06T06:00:36;17.20;99.90
6581;DHT22;3324;50.796;7.228;2022-07-06T06:03:02;17.10;99.90
6581;DHT22;3324;50.796;7.228;2022-07-06T06:05:27;17.10;99.90
6581;DHT22;3324;50.796;7.228;2022-07-06T06:07:53;17.10;99.90
6581;DHT22;3324;50.796;7.228;2022-07-06T06:10:20;17.30;99.90
6581;DHT22;3324;50.796;7.228;2022-07-06T06:12:50;17.50;99.90
6581;DHT22;3324;50.796;7.228;2022-07-06T06:15:15;17.60;99.90
6581;DHT22;3324;50.796;7.228;2022-07-06T06:17:41;17.60;99.90
6581;DHT22;3324;50.796;7.228;2022-07-06T06:20:11;17.50;99.90
6581;DHT22;3324;50.796;7.228;2022-07-06T06:22:51;17.40;99.90
6581;DHT22;3324;50.796;7.228;2022-07-06T06:25:19;17.20;99.90
6581;DHT22;3324;50.796;7.228;2022-07-06T06:27:45;17.10;99.90
6581;DHT22;3324;50.796;7.228;2022-07-06T06:30:11;17.00;99.90
6581;DHT22;3324;50.796;7.228;2022-07-06T06:32:37;16.90;99.90
6581;DHT22;3324;50.796;7.228;2022-07-06T06:35:04;16.90;99.90
6581;DHT22;3324;50.796;7.228;2022-07-06T06:37:29;16.80;99.90
6581;DHT22;3324;50.796;7.228;2022-07-06T06:39:55;16.80;99.90
6581;DHT22;3324;50.796;7.228;2022-07-06T06:42:21;17.00;99.90
6581;DHT22;3324;50.796;7.228;2022-07-06T06:44:46;17.20;99.90
6581;DHT22;3324;50.796;7.228;2022-07-06T06:47:12;17.50;99.90
6581;DHT22;3324;50.796;7.228;2022-07-06T06:49:38;17.90;99.90
6581;DHT22;3324;50.796;7.228;2022-07-06T06:52:03;18.20;99.90
6581;DHT22;3324;50.796;7.228;2022-07-06T06:54:29;18.40;99.90
6581;DHT22;3324;50.796;7.228;2022-07-06T06:56:55;18.50;99.90
6581;DHT22;3324;50.796;7.228;2022-07-06T06:59:20;18.50;99.90
6581;DHT22;3324;50.796;7.228;2022-07-06T07:01:46;18.50;99.90
6581;DHT22;3324;50.796;7.228;2022-07-06T07:04:11;18.30;99.90
6581;DHT22;3324;50.796;7.228;2022-07-06T07:06:37;18.20;99.90
6581;DHT22;3324;50.796;7.228;2022-07-06T07:09:03;18.00;99.90
6581;DHT22;3324;50.796;7.228;2022-07-06T07:11:28;18.10;99.90
6581;DHT22;3324;50.796;7.228;2022-07-06T07:13:54;18.20;99.90
6581;DHT22;3324;50.796;7.228;2022-07-06T07:16:20;18.40;99.90
6581;DHT22;3324;50.796;7.228;2022-07-06T07:18:45;18.70;99.90
6581;DHT22;3324;50.796;7.228;2022-07-06T07:21:11;19.00;99.90
6581;DHT22;3324;50.796;7.228;2022-07-06T07:23:37;19.00;99.90
6581;DHT22;3324;50.796;7.228;2022-07-06T07:26:02;19.00;99.90
6581;DHT22;3324;50.796;7.228;2022-07-06T07:28:28;18.90;99.90
6581;DHT22;3324;50.796;7.228;2022-07-06T07:30:54;18.80;99.90
6581;DHT22;3324;50.796;7.228;2022-07-06T07:33:19;18.70;99.90
6581;DHT22;3324;50.796;7.228;2022-07-06T07:35:45;18.50;99.90
6581;DHT22;3324;50.796;7.228;2022-07-06T07:38:10;18.40;99.90
6581;DHT22;3324;50.796;7.228;2022-07-06T07:40:36;18.30;99.90
6581;DHT22;3324;50.796;7.228;2022-07-06T07:43:02;18.30;99.90
6581;DHT22;3324;50.796;7.228;2022-07-06T07:45:27;18.20;99.90
6581;DHT22;3324;50.796;7.228;2022-07-06T07:47:53;18.10;99.90
6581;DHT22;3324;50.796;7.228;2022-07-06T07:50:19;18.00;99.90
6581;DHT22;3324;50.796;7.228;2022-07-06T07:52:44;18.30;99.90
6581;DHT22;3324;50.796;7.228;2022-07-06T07:55:10;18.70;99.90
6581;DHT22;3324;50.796;7.228;2022-07-06T07:57:36;19.20;99.90
6581;DHT22;3324;50.796;7.228;2022-07-06T08:00:03;19.30;99.90
6581;DHT22;3324;50.796;7.228;2022-07-06T08:02:29;19.30;99.90
6581;DHT22;3324;50.796;7.228;2022-07-06T08:04:55;19.30;99.90
6581;DHT22;3324;50.796;7.228;2022-07-06T08:07:20;19.40;99.90
6581;DHT22;3324;50.796;7.228;2022-07-06T08:09:46;19.40;99.90
6581;DHT22;3324;50.796;7.228;2022-07-06T08:12:12;19.50;99.90
6581;DHT22;3324;50.796;7.228;2022-07-06T08:14:37;19.50;99.90
6581;DHT22;3324;50.796;7.228;2022-07-06T08:17:03;19.60;99.90
6581;DHT22;3324;50.796;7.228;2022-07-06T08:19:29;19.60;99.90
6581;DHT22;3324;50.796;7.228;2022-07-06T08:21:56;19.60;99.90
6581;DHT22;3324;50.796;7.228;2022-07-06T08:24:21;19.60;99.90
6581;DHT22;3324;50.796;7.228;2022-07-06T08:26:47;19.70;99.90
6581;DHT22;3324;50.796;7.228;2022-07-06T08:29:13;19.90;99.90
6581;DHT22;3324;50.796;7.228;2022-07-06T08:31:39;20.20;99.90
6581;DHT22;3324;50.796;7.228;2022-07-06T08:34:05;20.10;99.90
6581;DHT22;3324;50.796;7.228;2022-07-06T08:36:31;20.10;99.90
6581;DHT22;3324;50.796;7.228;2022-07-06T08:38:56;20.10;99.90
6581;DHT22;3324;50.796;7.228;2022-07-06T08:41:25;20.10;99.90
6581;DHT22;3324;50.796;7.228;2022-07-06T08:43:51;20.10;99.90
6581;DHT22;3324;50.796;7.228;2022-07-06T08:46:18;20.10;99.90
6581;DHT22;3324;50.796;7.228;2022-07-06T08:48:45;20.10;99.90
6581;DHT22;3324;50.796;7.228;2022-07-06T08:51:13;20.00;99.90
6581;DHT22;3324;50.796;7.228;2022-07-06T08:53:40;19.90;99.90
6581;DHT22;3324;50.796;7.228;2022-07-06T08:56:06;19.70;99.90
6581;DHT22;3324;50.796;7.228;2022-07-06T08:58:32;19.80;99.90
6581;DHT22;3324;50.796;7.228;2022-07-06T09:00:58;19.70;99.90
6581;DHT22;3324;50.796;7.228;2022-07-06T09:03:25;19.60;99.90
6581;DHT22;3324;50.796;7.228;2022-07-06T09:05:53;19.60;99.90
6581;DHT22;3324;50.796;7.228;2022-07-06T09:08:22;19.90;99.90
6581;DHT22;3324;50.796;7.228;2022-07-06T09:10:49;20.30;99.90
6581;DHT22;3324;50.796;7.228;2022-07-06T09:13:15;20.70;99.90
6581;DHT22;3324;50.796;7.228;2022-07-06T09:15:40;21.20;99.90
6581;DHT22;3324;50.796;7.228;2022-07-06T09:18:06;21.60;99.90
6581;DHT22;3324;50.796;7.228;2022-07-06T09:20:33;21.70;99.90
6581;DHT22;3324;50.796;7.228;2022-07-06T09:23:04;21.60;99.90
6581;DHT22;3324;50.796;7.228;2022-07-06T09:25:30;21.40;99.90
6581;DHT22;3324;50.796;7.228;2022-07-06T09:27:58;21.20;99.90
6581;DHT22;3324;50.796;7.228;2022-07-06T09:30:25;21.00;99.90
6581;DHT22;3324;50.796;7.228;2022-07-06T09:32:58;20.80;99.90
6581;DHT22;3324;50.796;7.228;2022-07-06T09:35:29;20.60;99.90
6581;DHT22;3324;50.796;7.228;2022-07-06T09:40:42;20.60;99.90
6581;DHT22;3324;50.796;7.228;2022-07-06T09:43:08;20.60;99.90
6581;DHT22;3324;50.796;7.228;2022-07-06T09:45:35;20.80;99.90
6581;DHT22;3324;50.796;7.228;2022-07-06T09:48:09;21.00;99.90
6581;DHT22;3324;50.796;7.228;2022-07-06T09:50:41;21.20;99.90
6581;DHT22;3324;50.796;7.228;2022-07-06T09:53:09;21.40;99.90
6581;DHT22;3324;50.796;7.228;2022-07-06T09:55:35;21.70;99.90
6581;DHT22;3324;50.796;7.228;2022-07-06T09:58:01;22.00;99.90
6581;DHT22;3324;50.796;7.228;2022-07-06T10:00:27;22.10;99.90
6581;DHT22;3324;50.796;7.228;2022-07-06T10:02:54;21.90;99.90
6581;DHT22;3324;50.796;7.228;2022-07-06T10:05:21;21.60;99.90
6581;DHT22;3324;50.796;7.228;2022-07-06T10:07:56;21.50;99.90
6581;DHT22;3324;50.796;7.228;2022-07-06T10:10:26;21.30;99.90
6581;DHT22;3324;50.796;7.228;2022-07-06T10:12:55;20.90;99.90
6581;DHT22;3324;50.796;7.228;2022-07-06T10:15:22;20.90;99.90
6581;DHT22;3324;50.796;7.228;2022-07-06T10:17:49;20.70;99.90
6581;DHT22;3324;50.796;7.228;2022-07-06T10:20:15;20.60;99.90
6581;DHT22;3324;50.796;7.228;2022-07-06T10:22:41;20.70;99.90
6581;DHT22;3324;50.796;7.228;2022-07-06T10:25:07;20.80;99.90
6581;DHT22;3324;50.796;7.228;2022-07-06T10:27:35;20.80;99.90
6581;DHT22;3324;50.796;7.228;2022-07-06T10:30:01;20.90;99.90
6581;DHT22;3324;50.796;7.228;2022-07-06T10:32:28;20.90;99.90
6581;DHT22;3324;50.796;7.228;2022-07-06T10:34:54;20.90;99.90
6581;DHT22;3324;50.796;7.228;2022-07-06T10:37:27;21.00;99.90
6581;DHT22;3324;50.796;7.228;2022-07-06T10:39:53;21.10;99.90
6581;DHT22;3324;50.796;7.228;2022-07-06T10:42:50;21.40;99.90
6581;DHT22;3324;50.796;7.228;2022-07-06T10:50:39;22.10;99.90
6581;DHT22;3324;50.796;7.228;2022-07-06T10:53:12;22.00;99.90
6581;DHT22;3324;50.796;7.228;2022-07-06T10:55:46;21.80;99.90
6581;DHT22;3324;50.796;7.228;2022-07-06T10:58:13;21.70;99.90
6581;DHT22;3324;50.796;7.228;2022-07-06T11:00:54;21.50;99.90
6581;DHT22;3324;50.796;7.228;2022-07-06T11:06:32;21.50;99.90
6581;DHT22;3324;50.796;7.228;2022-07-06T11:14:07;21.60;99.90
6581;DHT22;3324;50.796;7.228;2022-07-06T11:16:36;21.70;99.90
6581;DHT22;3324;50.796;7.228;2022-07-06T11:21:43;22.40;98.70
6581;DHT22;3324;50.796;7.228;2022-07-06T11:24:21;22.70;99.30
6581;DHT22;3324;50.796;7.228;2022-07-06T11:26:50;22.90;98.80
6581;DHT22;3324;50.796;7.228;2022-07-06T11:29:17;23.20;97.70
6581;DHT22;3324;50.796;7.228;2022-07-06T11:31:45;23.40;95.80
6581;DHT22;3324;50.796;7.228;2022-07-06T11:34:14;23.70;96.10
6581;DHT22;3324;50.796;7.228;2022-07-06T11:36:42;23.70;94.90
6581;DHT22;3324;50.796;7.228;2022-07-06T11:39:08;23.80;94.50
6581;DHT22;3324;50.796;7.228;2022-07-06T11:41:34;23.80;93.50
6581;DHT22;3324;50.796;7.228;2022-07-06T11:44:00;23.80;94.00
6581;DHT22;3324;50.796;7.228;2022-07-06T11:46:28;23.90;93.40
6581;DHT22;3324;50.796;7.228;2022-07-06T11:48:59;24.10;93.40
6581;DHT22;3324;50.796;7.228;2022-07-06T11:51:26;24.00;93.00
6581;DHT22;3324;50.796;7.228;2022-07-06T11:54:00;23.90;93.40
6581;DHT22;3324;50.796;7.228;2022-07-06T11:56:29;23.90;93.00
6581;DHT22;3324;50.796;7.228;2022-07-06T11:58:57;23.90;92.70
6581;DHT22;3324;50.796;7.228;2022-07-06T12:01:25;23.80;92.40
6581;DHT22;3324;50.796;7.228;2022-07-06T12:03:52;23.80;93.60
6581;DHT22;3324;50.796;7.228;2022-07-06T12:06:19;23.50;93.40
6581;DHT22;3324;50.796;7.228;2022-07-06T12:08:53;23.20;93.10
6581;DHT22;3324;50.796;7.228;2022-07-06T12:11:33;23.10;96.10
6581;DHT22;3324;50.796;7.228;2022-07-06T12:14:01;22.60;96.30
6581;DHT22;3324;50.796;7.228;2022-07-06T12:16:35;22.40;96.40
6581;DHT22;3324;50.796;7.228;2022-07-06T12:19:03;22.40;96.40
6581;DHT22;3324;50.796;7.228;2022-07-06T12:21:29;22.70;96.30
6581;DHT22;3324;50.796;7.228;2022-07-06T12:23:56;23.00;96.20
6581;DHT22;3324;50.796;7.228;2022-07-06T12:26:24;23.30;94.70
6581;DHT22;3324;50.796;7.228;2022-07-06T12:29:08;23.40;93.90
6581;DHT22;3324;50.796;7.228;2022-07-06T12:31:44;23.30;94.20
6581;DHT22;3324;50.796;7.228;2022-07-06T12:34:21;23.10;95.40
6581;DHT22;3324;50.796;7.228;2022-07-06T12:36:49;23.00;96.10
6581;DHT22;3324;50.796;7.228;2022-07-06T12:39:17;22.90;95.20
6581;DHT22;3324;50.796;7.228;2022-07-06T12:44:11;23.00;94.00
6581;DHT22;3324;50.796;7.228;2022-07-06T12:46:38;23.20;95.80
6581;DHT22;3324;50.796;7.228;2022-07-06T12:49:21;23.40;94.30
6581;DHT22;3324;50.796;7.228;2022-07-06T12:51:52;23.70;92.60
6581;DHT22;3324;50.796;7.228;2022-07-06T12:54:18;23.80;93.30
6581;DHT22;3324;50.796;7.228;2022-07-06T12:59:30;23.90;91.50
6581;DHT22;3324;50.796;7.228;2022-07-06T13:01:56;23.70;93.20
6581;DHT22;3324;50.796;7.228;2022-07-06T13:04:31;23.50;92.70
6581;DHT22;3324;50.796;7.228;2022-07-06T13:06:59;23.40;91.70
6581;DHT22;3324;50.796;7.228;2022-07-06T13:09:24;23.30;92.40
6581;DHT22;3324;50.796;7.228;2022-07-06T13:11:50;23.10;93.00
6581;DHT22;3324;50.796;7.228;2022-07-06T13:14:17;23.00;93.40
6581;DHT22;3324;50.796;7.228;2022-07-06T13:16:44;23.10;94.20
6581;DHT22;3324;50.796;7.228;2022-07-06T13:19:09;23.10;95.10
6581;DHT22;3324;50.796;7.228;2022-07-06T13:21:35;23.00;94.00
6581;DHT22;3324;50.796;7.228;2022-07-06T13:24:02;23.10;93.00
6581;DHT22;3324;50.796;7.228;2022-07-06T13:26:28;23.20;94.20
6581;DHT22;3324;50.796;7.228;2022-07-06T13:28:54;23.20;93.10
6581;DHT22;3324;50.796;7.228;2022-07-06T13:31:20;23.10;92.10
6581;DHT22;3324;50.796;7.228;2022-07-06T13:33:46;23.00;93.90
6581;DHT22;3324;50.796;7.228;2022-07-06T13:36:11;22.90;93.60
6581;DHT22;3324;50.796;7.228;2022-07-06T13:38:37;23.00;94.00
6581;DHT22;3324;50.796;7.228;2022-07-06T13:41:02;23.00;93.30
6581;DHT22;3324;50.796;7.228;2022-07-06T13:43:28;23.10;94.50
6581;DHT22;3324;50.796;7.228;2022-07-06T13:46:04;23.10;93.10
6581;DHT22;3324;50.796;7.228;2022-07-06T13:48:30;23.10;94.80
6581;DHT22;3324;50.796;7.228;2022-07-06T13:50:56;23.00;94.40
6581;DHT22;3324;50.796;7.228;2022-07-06T13:53:22;23.00;93.50
6581;DHT22;3324;50.796;7.228;2022-07-06T13:55:47;23.10;91.90
6581;DHT22;3324;50.796;7.228;2022-07-06T13:58:13;23.00;93.50
6581;DHT22;3324;50.796;7.228;2022-07-06T14:00:39;23.10;93.30
6581;DHT22;3324;50.796;7.228;2022-07-06T14:03:05;23.10;92.30
6581;DHT22;3324;50.796;7.228;2022-07-06T14:05:31;23.10;93.60
6581;DHT22;3324;50.796;7.228;2022-07-06T14:07:56;23.00;92.30
6581;DHT22;3324;50.796;7.228;2022-07-06T14:10:23;23.10;92.70
6581;DHT22;3324;50.796;7.228;2022-07-06T14:12:49;23.10;93.60
6581;DHT22;3324;50.796;7.228;2022-07-06T14:15:14;23.10;93.90
6581;DHT22;3324;50.796;7.228;2022-07-06T14:17:40;23.10;93.20
6581;DHT22;3324;50.796;7.228;2022-07-06T14:20:06;23.10;93.70
6581;DHT22;3324;50.796;7.228;2022-07-06T14:22:32;23.10;93.10
6581;DHT22;3324;50.796;7.228;2022-07-06T14:24:58;23.10;92.60
6581;DHT22;3324;50.796;7.228;2022-07-06T14:27:24;23.00;93.50
6581;DHT22;3324;50.796;7.228;2022-07-06T14:29:49;23.10;93.40
6581;DHT22;3324;50.796;7.228;2022-07-06T14:32:15;23.10;93.50
6581;DHT22;3324;50.796;7.228;2022-07-06T14:34:41;23.10;92.60
6581;DHT22;3324;50.796;7.228;2022-07-06T14:37:07;23.10;93.90
6581;DHT22;3324;50.796;7.228;2022-07-06T14:39:32;23.20;92.30
6581;DHT22;3324;50.796;7.228;2022-07-06T14:41:58;23.10;93.40
6581;DHT22;3324;50.796;7.228;2022-07-06T14:44:23;23.10;92.70
6581;DHT22;3324;50.796;7.228;2022-07-06T14:46:49;23.00;93.00
6581;DHT22;3324;50.796;7.228;2022-07-06T14:49:15;22.90;94.30
6581;DHT22;3324;50.796;7.228;2022-07-06T14:51:40;22.80;94.20
6581;DHT22;3324;50.796;7.228;2022-07-06T14:54:06;22.90;94.50
6581;DHT22;3324;50.796;7.228;2022-07-06T14:56:32;22.90;93.10
6581;DHT22;3324;50.796;7.228;2022-07-06T14:58:57;22.90;93.50
6581;DHT22;3324;50.796;7.228;2022-07-06T15:01:23;22.80;93.70
6581;DHT22;3324;50.796;7.228;2022-07-06T15:03:48;22.70;93.70
6581;DHT22;3324;50.796;7.228;2022-07-06T15:06:14;22.70;94.40
6581;DHT22;3324;50.796;7.228;2022-07-06T15:08:40;22.70;93.90
6581;DHT22;3324;50.796;7.228;2022-07-06T15:11:06;22.70;97.50
6581;DHT22;3324;50.796;7.228;2022-07-06T15:13:31;22.80;97.10
6581;DHT22;3324;50.796;7.228;2022-07-06T15:15:57;22.80;95.00
6581;DHT22;3324;50.796;7.228;2022-07-06T15:18:23;22.90;95.30
6581;DHT22;3324;50.796;7.228;2022-07-06T15:20:48;23.10;94.00
6581;DHT22;3324;50.796;7.228;2022-07-06T15:23:14;23.20;93.00
6581;DHT22;3324;50.796;7.228;2022-07-06T15:25:40;23.20;93.90
6581;DHT22;3324;50.796;7.228;2022-07-06T15:28:06;23.30;93.50
6581;DHT22;3324;50.796;7.228;2022-07-06T15:30:31;23.40;92.10
6581;DHT22;3324;50.796;7.228;2022-07-06T15:32:59;23.40;93.00
6581;DHT22;3324;50.796;7.228;2022-07-06T15:35:25;23.40;93.40
6581;DHT22;3324;50.796;7.228;2022-07-06T15:37:50;23.40;92.90
6581;DHT22;3324;50.796;7.228;2022-07-06T15:40:16;23.30;93.80
6581;DHT22;3324;50.796;7.228;2022-07-06T15:42:49;23.20;93.60
6581;DHT22;3324;50.796;7.228;2022-07-06T15:45:17;23.10;94.70
6581;DHT22;3324;50.796;7.228;2022-07-06T15:47:43;23.00;94.00
6581;DHT22;3324;50.796;7.228;2022-07-06T15:50:09;22.90;92.90
6581;DHT22;3324;50.796;7.228;2022-07-06T15:52:34;23.00;94.50
6581;DHT22;3324;50.796;7.228;2022-07-06T15:55:00;23.10;93.60
6581;DHT22;3324;50.796;7.228;2022-07-06T15:57:26;23.00;94.20
6581;DHT22;3324;50.796;7.228;2022-07-06T15:59:52;23.10;93.10
6581;DHT22;3324;50.796;7.228;2022-07-06T16:02:19;23.10;93.40
6581;DHT22;3324;50.796;7.228;2022-07-06T16:04:45;23.10;93.60
6581;DHT22;3324;50.796;7.228;2022-07-06T16:07:12;23.00;93.10
6581;DHT22;3324;50.796;7.228;2022-07-06T16:09:38;22.90;92.60
6581;DHT22;3324;50.796;7.228;2022-07-06T16:12:04;22.90;92.80
6581;DHT22;3324;50.796;7.228;2022-07-06T16:14:30;23.00;92.30
6581;DHT22;3324;50.796;7.228;2022-07-06T16:16:56;22.90;92.20
6581;DHT22;3324;50.796;7.228;2022-07-06T16:19:21;22.90;92.70
6581;DHT22;3324;50.796;7.228;2022-07-06T16:21:47;22.90;92.50
6581;DHT22;3324;50.796;7.228;2022-07-06T16:24:13;22.90;92.40